aviador You're here:

YMHB Decoded Metar

HOBART in AUSTRALIA
Report Time2017-08-24 02:30:00
UTC Time2017-08-24 03:09:25
Flight Rules vfr VFR
Wind310° at 07 kt
W.Decomp.*RWY 30: 7.0 kt HW 0.7 kt LCW
W.Rank310° ranks 2
Current wind is below 310° avg. (9.4)
Visibility9999 m
Phenomena:N/A
Clouds:Broken 038 Hf
Expected CloudBase > 4,000 ft AGL from Temp-Dew spread
Ceiling3,800 ft
Temp12°C (ISA -3)
Dew Point02°C (51% RH)
AAT7.8°C
QNH1018 hPa
Density Alt-318 ft
Elevation89 ft
Report Wrong Elevation
Raw Report
YMHB 240230Z 31007KT 9999 BKN038 12/02 Q1018=

Extra information for YMHB:More info

Metar Taf Metar & Taf Last 4 Metars F.Rules Stats Wind Profile Meteogram Temp Stats Airport Information Weather charts Add Link Nearby VenuesMetar ALERT Operation Metar Decoded Social comments